createdAt,value
2023-01-28T00:01:28.938Z,5.90
2023-01-28T00:05:17.067Z,6.10
2023-01-28T00:08:57.457Z,5.50
2023-01-28T00:12:45.332Z,9.10
2023-01-28T00:16:35.771Z,4.80
2023-01-28T00:20:23.582Z,8.10
2023-01-28T00:24:12.239Z,7.20
2023-01-28T00:28:00.725Z,4.80
2023-01-28T00:31:48.139Z,8.10
2023-01-28T00:35:23.187Z,7.60
2023-01-28T00:39:11.015Z,5.00
2023-01-28T00:42:58.776Z,5.10
2023-01-28T00:46:46.267Z,5.90
2023-01-28T00:50:33.845Z,5.00
2023-01-28T00:54:23.427Z,6.80
2023-01-28T00:58:10.979Z,3.90
2023-01-28T01:02:01.507Z,4.00
2023-01-28T01:05:42.777Z,6.20
2023-01-28T01:09:30.361Z,6.60
2023-01-28T01:13:17.937Z,5.80
2023-01-28T01:17:06.052Z,4.30
2023-01-28T01:20:59.834Z,5.30
2023-01-28T01:24:47.451Z,6.50
2023-01-28T01:28:27.816Z,3.50
2023-01-28T01:32:15.469Z,2.90
2023-01-28T01:36:03.191Z,5.90
2023-01-28T01:39:53.602Z,6.20
2023-01-28T01:43:41.121Z,7.90
2023-01-28T01:47:37.808Z,8.60
2023-01-28T01:51:34.973Z,7.60
2023-01-28T01:55:22.521Z,4.50
2023-01-28T01:59:09.989Z,4.00
2023-01-28T02:02:57.734Z,6.50
2023-01-28T02:06:45.483Z,6.10
2023-01-28T02:10:32.354Z,9.40
2023-01-28T02:14:30.676Z,6.30
2023-01-28T02:18:12.331Z,8.10
2023-01-28T02:22:16.162Z,7.20
2023-01-28T02:26:02.737Z,5.70
2023-01-28T02:30:08.365Z,15.80
2023-01-28T02:34:08.750Z,4.20
2023-01-28T02:38:01.001Z,5.40
2023-01-28T02:41:45.233Z,5.90
2023-01-28T02:45:32.981Z,8.00
2023-01-28T02:49:21.012Z,10.30
2023-01-28T02:53:18.968Z,3.90
2023-01-28T02:57:11.015Z,6.60
2023-01-28T03:01:10.604Z,5.80
2023-01-28T03:04:59.980Z,7.80
2023-01-28T03:08:46.312Z,6.70
2023-01-28T03:12:32.233Z,9.50
2023-01-28T03:16:18.551Z,7.20
2023-01-28T03:20:05.007Z,4.30
2023-01-28T03:23:52.175Z,7.20
2023-01-28T03:27:50.603Z,7.80
2023-01-28T03:31:43.387Z,6.60
2023-01-28T03:35:25.755Z,9.90
2023-01-28T03:39:13.661Z,8.80
2023-01-28T03:43:01.432Z,8.10
2023-01-28T03:46:49.269Z,7.30
2023-01-28T03:50:32.982Z,7.40
2023-01-28T03:54:13.614Z,7.40
2023-01-28T03:57:54.517Z,4.50
2023-01-28T04:01:43.516Z,7.90
2023-01-28T04:05:24.803Z,7.00
2023-01-28T04:09:02.019Z,7.50
2023-01-28T04:12:47.961Z,5.40
2023-01-28T04:16:34.526Z,6.50
2023-01-28T04:20:23.391Z,5.30
2023-01-28T04:24:11.456Z,3.80
2023-01-28T04:28:00.539Z,6.00
2023-01-28T04:31:49.017Z,5.50
2023-01-28T04:35:37.673Z,6.70
2023-01-28T04:39:25.432Z,4.40
2023-01-28T04:43:12.121Z,5.80
2023-01-28T04:47:05.721Z,4.40
2023-01-28T04:51:02.096Z,4.70
2023-01-28T04:54:55.649Z,4.70
2023-01-28T04:58:43.202Z,4.80
2023-01-28T05:02:31.806Z,3.10
2023-01-28T05:06:19.655Z,3.70
2023-01-28T05:10:08.385Z,2.90
2023-01-28T05:13:48.553Z,3.40
2023-01-28T05:17:36.362Z,2.90
2023-01-28T05:21:24.320Z,2.40
2023-01-28T05:25:12.608Z,4.00
2023-01-28T05:29:00.361Z,2.30
2023-01-28T05:32:58.613Z,2.90
2023-01-28T05:36:31.812Z,3.20
2023-01-28T05:40:20.781Z,4.10
2023-01-28T05:44:08.878Z,3.60
2023-01-28T05:47:41.108Z,4.80
2023-01-28T05:51:33.288Z,2.10
2023-01-28T05:55:22.121Z,3.50
2023-01-28T05:59:23.528Z,2.70
2023-01-28T06:03:51.828Z,3.50
2023-01-28T06:08:20.509Z,4.70
2023-01-28T06:12:48.894Z,5.40
2023-01-28T06:17:19.660Z,3.50
2023-01-28T06:21:47.615Z,3.90
2023-01-28T06:26:15.490Z,3.70
2023-01-28T06:30:44.423Z,2.30
2023-01-28T06:35:12.350Z,3.70
2023-01-28T06:39:40.846Z,4.30
2023-01-28T06:44:08.647Z,5.40
2023-01-28T06:48:36.973Z,5.10
2023-01-28T06:53:04.693Z,5.10
2023-01-28T06:57:32.093Z,3.40
2023-01-28T07:02:00.392Z,3.40
2023-01-28T07:06:28.393Z,3.50
2023-01-28T07:10:56.282Z,4.80
2023-01-28T07:15:24.885Z,3.00
2023-01-28T07:19:34.737Z,4.20
2023-01-28T07:24:03.182Z,3.20
2023-01-28T07:28:31.571Z,4.30
2023-01-28T07:32:59.697Z,1.80
2023-01-28T07:37:27.660Z,4.60
2023-01-28T07:41:55.650Z,2.80
2023-01-28T07:46:28.072Z,3.50
2023-01-28T07:50:56.374Z,4.50
2023-01-28T07:55:24.450Z,4.50
2023-01-28T07:59:53.387Z,3.50
2023-01-28T08:27:26.887Z,1.70
2023-01-28T08:31:54.756Z,3.90
2023-01-28T08:36:23.009Z,7.10
2023-01-28T08:40:51.603Z,2.40
2023-01-28T08:45:20.191Z,7.70
2023-01-28T08:49:48.610Z,4.70
2023-01-28T08:54:16.858Z,2.80
2023-01-28T08:58:47.413Z,6.80
2023-01-28T09:03:16.318Z,2.00
2023-01-28T09:07:44.487Z,5.90
2023-01-28T09:12:15.093Z,4.30
2023-01-28T09:16:46.265Z,2.70
2023-01-28T09:21:17.427Z,3.50
2023-01-28T09:25:46.178Z,5.80
2023-01-28T09:30:16.130Z,5.80
2023-01-28T09:34:46.445Z,4.90
2023-01-28T09:39:14.632Z,5.60
2023-01-28T09:43:47.787Z,3.80
2023-01-28T09:47:55.562Z,4.90
2023-01-28T09:52:29.806Z,3.50
2023-01-28T09:57:00.346Z,5.30
2023-01-28T10:01:35.134Z,7.50
2023-01-28T10:06:09.276Z,2.60
2023-01-28T10:10:49.401Z,4.50
2023-01-28T10:15:29.317Z,4.70
2023-01-28T10:20:06.816Z,4.00
2023-01-28T10:24:46.891Z,6.10
2023-01-28T10:29:00.783Z,5.60
2023-01-28T10:33:37.954Z,4.00
2023-01-28T10:37:47.794Z,5.40
2023-01-28T10:42:15.522Z,11.80
2023-01-28T10:46:37.063Z,10.90
2023-01-28T10:51:05.396Z,13.40
2023-01-28T10:55:23.706Z,8.20
2023-01-28T11:00:00.309Z,12.70
2023-01-28T11:04:34.949Z,8.20
2023-01-28T11:08:47.173Z,9.70
2023-01-28T11:13:03.953Z,7.90
2023-01-28T11:17:32.467Z,9.90
2023-01-28T11:22:01.032Z,6.70
2023-01-28T11:26:41.437Z,6.00
2023-01-28T11:31:10.012Z,9.70
2023-01-28T11:35:37.911Z,7.60
2023-01-28T11:40:22.853Z,6.30
2023-01-28T11:44:53.008Z,4.20
2023-01-28T11:49:24.181Z,7.60
2023-01-28T11:53:52.043Z,5.60
2023-01-28T11:58:47.133Z,7.20
2023-01-28T12:03:19.033Z,4.70
2023-01-28T12:07:52.455Z,4.90
2023-01-28T12:12:32.791Z,14.90
2023-01-28T12:17:07.240Z,5.90
2023-01-28T12:21:44.325Z,5.10
2023-01-28T12:26:15.724Z,7.10
2023-01-28T12:30:54.925Z,15.50
2023-01-28T12:35:36.474Z,10.80
2023-01-28T12:40:09.377Z,11.20
2023-01-28T12:44:50.321Z,13.90
2023-01-28T12:49:22.406Z,155.70
2023-01-28T12:53:54.585Z,14.10
2023-01-28T12:58:31.819Z,10.40
2023-01-28T13:03:06.048Z,9.60
2023-01-28T13:07:34.602Z,10.00
2023-01-28T13:12:02.414Z,8.90
2023-01-28T13:16:37.418Z,9.90
2023-01-28T13:20:58.769Z,10.20
2023-01-28T13:32:13.186Z,3.20
2023-01-28T13:35:47.016Z,7.50
2023-01-28T13:38:58.137Z,11.90
2023-01-28T13:42:50.812Z,12.00
2023-01-28T13:46:04.193Z,11.10
2023-01-28T13:49:49.399Z,14.70
2023-01-28T13:53:34.330Z,20.80
2023-01-28T13:57:13.167Z,17.90
2023-01-28T14:01:09.739Z,10.90
2023-01-28T14:04:45.882Z,11.20
2023-01-28T14:08:28.900Z,11.80
2023-01-28T14:11:58.242Z,14.60
2023-01-28T14:15:55.331Z,13.40
2023-01-28T14:19:42.575Z,13.80
2023-01-28T14:23:12.485Z,17.20
2023-01-28T14:27:16.807Z,31.60
2023-01-28T14:31:07.352Z,14.00
2023-01-28T14:34:35.592Z,7.70
2023-01-28T14:38:04.222Z,12.50
2023-01-28T14:41:16.886Z,9.80
2023-01-28T14:45:01.990Z,6.40
2023-01-28T14:48:40.643Z,8.50
2023-01-28T14:52:01.616Z,10.20
2023-01-28T14:55:43.319Z,6.60
2023-01-28T14:59:50.455Z,8.90
2023-01-28T15:03:24.209Z,15.60
2023-01-28T15:06:28.117Z,11.30
2023-01-28T15:09:48.481Z,8.30
2023-01-28T15:13:53.543Z,11.30
2023-01-28T15:16:59.133Z,17.70
2023-01-28T15:20:36.826Z,21.60
2023-01-28T15:24:06.900Z,19.40
2023-01-28T15:27:19.289Z,17.10
2023-01-28T15:30:57.133Z,11.00
2023-01-28T15:34:09.927Z,14.40
2023-01-28T15:37:14.127Z,13.40
2023-01-28T15:45:13.727Z,13.60
2023-01-28T15:48:29.028Z,10.60
2023-01-28T15:51:34.723Z,10.20
2023-01-28T15:55:24.478Z,9.70
2023-01-28T15:59:09.381Z,12.50
2023-01-28T16:03:11.378Z,11.00
2023-01-28T16:06:54.362Z,19.60
2023-01-28T16:10:23.982Z,11.70
2023-01-28T16:14:06.614Z,9.00
2023-01-28T16:17:39.062Z,12.40
2023-01-28T16:21:15.147Z,14.30
2023-01-28T16:24:56.832Z,15.20
2023-01-28T16:27:57.169Z,21.80
2023-01-28T16:31:30.605Z,30.70
2023-01-28T16:35:00.523Z,30.00
2023-01-28T16:38:21.719Z,25.00
2023-01-28T16:41:41.206Z,22.50
2023-01-28T16:45:30.815Z,19.70
2023-01-28T16:49:13.945Z,23.20
2023-01-28T16:52:48.912Z,34.00
2023-01-28T16:56:47.491Z,19.60
2023-01-28T17:00:00.617Z,21.00
2023-01-28T17:03:16.416Z,17.40
2023-01-28T17:06:26.372Z,13.40
2023-01-28T17:10:00.806Z,16.90
2023-01-28T17:13:39.821Z,16.20
2023-01-28T17:17:09.763Z,29.60
2023-01-28T17:20:48.615Z,48.20
2023-01-28T17:24:20.779Z,54.70
2023-01-28T17:27:45.540Z,55.30
2023-01-28T17:31:18.347Z,55.40
2023-01-28T17:34:49.343Z,65.80
2023-01-28T17:38:30.038Z,58.90
2023-01-28T17:53:28.768Z,52.90
2023-01-28T17:57:17.454Z,61.90
2023-01-28T18:01:07.875Z,43.20
2023-01-28T18:05:19.066Z,25.80
2023-01-28T18:09:08.842Z,22.50
2023-01-28T18:13:02.263Z,17.50
2023-01-28T18:17:30.323Z,18.00
2023-01-28T18:21:51.830Z,15.90
2023-01-28T18:25:41.207Z,18.50
2023-01-28T18:29:29.583Z,20.90
2023-01-28T18:33:19.973Z,20.10
2023-01-28T18:37:11.541Z,21.90
2023-01-28T18:41:00.016Z,24.40
2023-01-28T18:44:57.339Z,23.30
2023-01-28T18:48:46.775Z,21.70
2023-01-28T18:52:38.523Z,18.70
2023-01-28T18:56:26.915Z,19.10
2023-01-28T19:00:31.526Z,19.30
2023-01-28T19:04:20.017Z,20.50
2023-01-28T19:08:10.750Z,23.40
2023-01-28T19:11:53.189Z,22.40
2023-01-28T19:16:04.752Z,24.20
2023-01-28T19:19:54.107Z,21.50
2023-01-28T19:23:49.836Z,20.00
2023-01-28T19:27:59.138Z,21.50
2023-01-28T19:31:49.092Z,22.00
2023-01-28T19:35:59.236Z,20.50
2023-01-28T19:40:04.187Z,18.60
2023-01-28T19:44:12.298Z,18.70
2023-01-28T19:48:24.070Z,22.80
2023-01-28T19:52:13.624Z,21.70
2023-01-28T19:56:27.807Z,21.80
2023-01-28T20:00:36.943Z,24.30
2023-01-28T20:05:00.657Z,21.00
2023-01-28T20:09:10.669Z,21.00
2023-01-28T20:13:26.386Z,23.10
2023-01-28T20:17:21.026Z,24.30
2023-01-28T20:21:15.003Z,26.00
2023-01-28T20:25:22.260Z,25.50
2023-01-28T20:29:20.185Z,24.80
2023-01-28T20:33:48.271Z,25.60
2023-01-28T20:37:58.850Z,25.80
2023-01-28T20:42:07.916Z,31.10
2023-01-28T20:46:04.028Z,35.90
2023-01-28T20:50:33.524Z,32.40
2023-01-28T20:54:22.194Z,37.90
2023-01-28T20:58:10.660Z,33.80
2023-01-28T21:02:15.818Z,42.70
2023-01-28T21:06:06.947Z,42.40
2023-01-28T21:10:16.138Z,41.80
2023-01-28T21:14:10.034Z,37.70
2023-01-28T21:18:18.874Z,54.60
2023-01-28T21:22:28.656Z,45.10
2023-01-28T21:26:35.401Z,46.60
2023-01-28T21:30:25.860Z,47.10
2023-01-28T21:34:17.012Z,55.40
2023-01-28T21:38:06.533Z,69.80
2023-01-28T21:41:56.594Z,64.40
2023-01-28T21:45:49.791Z,57.40
2023-01-28T21:49:40.666Z,56.10
2023-01-28T21:53:31.057Z,50.80
2023-01-28T21:57:39.470Z,47.20
2023-01-28T22:01:49.108Z,48.40
2023-01-28T22:06:01.254Z,53.80
2023-01-28T22:09:54.362Z,55.80
2023-01-28T22:13:51.240Z,51.70
2023-01-28T22:17:39.170Z,52.20
2023-01-28T22:21:47.808Z,54.30
2023-01-28T22:25:49.478Z,51.60
2023-01-28T22:29:57.815Z,50.30
2023-01-28T22:34:02.764Z,39.70
2023-01-28T22:37:51.911Z,45.60
2023-01-28T22:41:43.441Z,38.70
2023-01-28T22:45:32.213Z,41.00
2023-01-28T22:49:33.744Z,40.60
2023-01-28T22:53:30.227Z,39.00
2023-01-28T22:57:07.241Z,42.50
2023-01-28T23:01:16.076Z,39.80
2023-01-28T23:05:04.346Z,33.60
2023-01-28T23:09:01.101Z,37.00
2023-01-28T23:12:52.111Z,32.60
2023-01-28T23:16:38.362Z,37.60
2023-01-28T23:20:45.606Z,32.40
2023-01-28T23:24:40.665Z,31.70
2023-01-28T23:28:48.566Z,33.60
2023-01-28T23:32:36.741Z,27.50
2023-01-28T23:36:44.784Z,24.30
2023-01-28T23:41:12.814Z,24.80
2023-01-28T23:45:40.970Z,23.00
2023-01-28T23:49:48.943Z,22.90
2023-01-28T23:53:57.186Z,20.60
2023-01-28T23:58:03.107Z,21.40
